Time,TemperatureF,DewpointF,PressureIn,WindDirection,WindDirectionDegrees,WindSpeedMPH,WindSpeedGustMPH,Humidity,HourlyPrecipIn,Conditions,Clouds,dailyrainin,SoftwareType,DateUTC
2013-08-29 00:23:00,79.0,70.0,-100.00,North,-999,-999.0,-999.0,73,0.00,,,0.00,,2013-08-29 05:23:00,
2013-08-29 00:52:00,78.0,70.0,-100.00,North,-999,-999.0,-999.0,76,0.00,,,0.00,,2013-08-29 05:52:00,
2013-08-29 01:22:00,78.0,72.0,-100.00,North,-999,-999.0,-999.0,83,0.00,,,0.00,,2013-08-29 06:22:00,
2013-08-29 01:52:00,79.0,70.0,-100.00,North,-999,-999.0,-999.0,73,0.00,,,0.00,,2013-08-29 06:52:00,
2013-08-29 02:22:00,80.0,69.0,-100.00,North,-999,-999.0,-999.0,69,0.00,,,0.00,,2013-08-29 07:22:00,
2013-08-29 02:53:00,79.0,69.0,-100.00,North,-999,-999.0,-999.0,70,0.00,,,0.00,,2013-08-29 07:53:00,
2013-08-29 03:22:00,79.0,70.0,-100.00,North,-999,-999.0,-999.0,75,0.00,,,0.00,,2013-08-29 08:22:00,
2013-08-29 03:52:00,78.0,70.0,-100.00,North,-999,-999.0,-999.0,77,0.00,,,0.00,,2013-08-29 08:52:00,
2013-08-29 04:22:00,77.0,70.0,-100.00,North,-999,-999.0,-999.0,79,0.00,,,0.00,,2013-08-29 09:22:00,
2013-08-29 04:54:00,77.0,71.0,-100.00,North,-999,-999.0,-999.0,82,0.00,,,0.00,,2013-08-29 09:54:00,
2013-08-29 05:24:00,76.0,71.0,-100.00,North,-999,-999.0,-999.0,84,0.00,,,0.00,,2013-08-29 10:24:00,
2013-08-29 05:53:00,75.0,71.0,-100.00,North,-999,-999.0,-999.0,88,0.00,,,0.00,,2013-08-29 10:53:00,
2013-08-29 06:22:00,74.0,72.0,-100.00,North,-999,-999.0,-999.0,92,0.00,,,0.00,,2013-08-29 11:22:00,
2013-08-29 06:52:00,73.0,71.0,-100.00,North,-999,-999.0,-999.0,95,0.00,,,0.00,,2013-08-29 11:52:00,
2013-08-29 07:22:00,72.0,71.0,-100.00,North,-999,-999.0,-999.0,95,0.00,,,0.00,,2013-08-29 12:22:00,
2013-08-29 07:52:00,72.0,71.0,-100.00,North,-999,-999.0,-999.0,96,0.00,,,0.00,,2013-08-29 12:52:00,
2013-08-29 08:02:00,72.0,71.0,-100.00,North,-999,-999.0,-999.0,96,0.00,,,0.00,,2013-08-29 13:02:00,
2013-08-29 08:22:00,73.0,71.0,-100.00,North,-999,-999.0,-999.0,95,0.00,,,-99.99,,2013-08-29 13:22:00,
2013-08-29 08:42:00,74.0,72.0,-100.00,North,-999,-999.0,-999.0,92,0.00,,,0.00,,2013-08-29 13:42:00,
2013-08-29 08:52:00,74.0,72.0,-100.00,North,-999,-999.0,-999.0,92,0.00,,,0.00,,2013-08-29 13:52:00,
2013-08-29 09:22:00,78.0,72.0,-100.00,North,-999,-999.0,-999.0,81,0.00,,,0.00,,2013-08-29 14:22:00,
2013-08-29 09:52:00,81.0,73.0,-100.00,North,-999,-999.0,-999.0,76,0.00,,,0.00,,2013-08-29 14:52:00,
2013-08-29 10:21:00,83.0,70.0,-100.00,North,-999,-999.0,-999.0,64,0.00,,,0.00,,2013-08-29 15:21:00,
2013-08-29 10:53:00,84.0,70.0,-100.00,North,-999,-999.0,-999.0,63,0.00,,,0.00,,2013-08-29 15:53:00,
2013-08-29 11:24:00,86.0,70.0,-100.00,North,-999,-999.0,-999.0,57,0.00,,,0.00,,2013-08-29 16:24:00,
2013-08-29 11:53:00,89.0,70.0,-100.00,North,-999,-999.0,-999.0,53,0.00,,,0.00,,2013-08-29 16:53:00,
2013-08-29 12:22:00,90.0,70.0,-100.00,North,-999,-999.0,-999.0,52,0.00,,,0.00,,2013-08-29 17:22:00,
2013-08-29 12:52:00,91.0,69.0,-100.00,North,-999,-999.0,-999.0,49,0.00,,,0.00,,2013-08-29 17:52:00,
2013-08-29 13:21:00,92.0,67.0,-100.00,North,-999,-999.0,-999.0,44,0.00,,,0.00,,2013-08-29 18:21:00,
2013-08-29 13:52:00,95.0,65.0,-100.00,North,-999,-999.0,-999.0,38,0.00,,,0.00,,2013-08-29 18:52:00,
2013-08-29 14:22:00,94.0,63.0,-100.00,North,-999,-999.0,-999.0,36,0.00,,,0.00,,2013-08-29 19:22:00,
2013-08-29 14:52:00,94.0,61.0,-100.00,North,-999,-999.0,-999.0,33,0.00,,,0.00,,2013-08-29 19:52:00,
2013-08-29 15:21:00,94.0,64.0,-100.00,North,-999,-999.0,-999.0,37,0.00,,,0.00,,2013-08-29 20:21:00,
2013-08-29 15:52:00,94.0,61.0,-100.00,North,-999,-999.0,-999.0,34,0.00,,,0.00,,2013-08-29 20:52:00,
2013-08-29 16:22:00,95.0,60.0,-100.00,North,-999,-999.0,-999.0,32,0.00,,,0.00,,2013-08-29 21:22:00,
2013-08-29 16:54:00,95.0,61.0,-100.00,North,-999,-999.0,-999.0,32,0.00,,,0.00,,2013-08-29 21:54:00,
2013-08-29 17:24:00,96.0,59.0,-100.00,North,-999,-999.0,-999.0,30,0.00,,,0.00,,2013-08-29 22:24:00,
2013-08-29 17:53:00,96.0,61.0,-100.00,North,-999,-999.0,-999.0,31,0.00,,,0.00,,2013-08-29 22:53:00,
2013-08-29 18:03:00,96.0,61.0,-100.00,North,-999,-999.0,-999.0,31,0.00,,,0.00,,2013-08-29 23:03:00,
2013-08-29 18:22:00,96.0,61.0,-100.00,North,-999,-999.0,-999.0,31,0.00,,,0.00,,2013-08-29 23:22:00,
2013-08-29 18:53:00,97.0,61.0,-100.00,North,-999,-999.0,-999.0,30,0.00,,,0.00,,2013-08-29 23:53:00,
2013-08-29 19:21:00,95.0,64.0,-100.00,North,-999,-999.0,-999.0,36,0.00,,,0.00,,2013-08-30 00:21:00,
2013-08-29 19:52:00,94.0,-99.9,-100.00,North,-999,-999.0,-999.0,42,0.00,,,0.00,,2013-08-30 00:52:00,
2013-08-29 20:22:00,90.0,-99.9,-100.00,North,-999,-999.0,-999.0,52,0.00,,,0.00,,2013-08-30 01:22:00,
2013-08-29 20:52:00,88.0,-99.9,-100.00,North,-999,-999.0,-999.0,61,0.00,,,0.00,,2013-08-30 01:52:00,
2013-08-29 21:22:00,86.0,-99.9,-100.00,North,-999,-999.0,-999.0,68,0.00,,,0.00,,2013-08-30 02:22:00,
2013-08-29 21:52:00,84.0,-99.9,-100.00,North,-999,-999.0,-999.0,72,0.00,,,0.00,,2013-08-30 02:52:00,
2013-08-29 22:13:00,84.0,-99.9,-100.00,North,-999,-999.0,-999.0,73,0.00,,,0.00,,2013-08-30 03:13:00,
2013-08-29 22:22:00,84.0,-99.9,-100.00,North,-999,-999.0,-999.0,73,0.00,,,0.00,,2013-08-30 03:22:00,
2013-08-29 22:55:00,82.0,71.0,-100.00,North,-999,-999.0,-999.0,69,0.00,,,0.00,,2013-08-30 03:55:00,
2013-08-29 23:24:00,80.0,72.0,-100.00,North,-999,-999.0,-999.0,76,-99.99,,,0.00,,2013-08-30 04:24:00,
2013-08-29 23:54:00,79.0,72.0,-100.00,North,-999,-999.0,-999.0,77,0.00,,,0.00,,2013-08-30 04:54:00,